Time;durP1;ratioP1;P1;durP2;ratioP2;P2;SDS_P1;SDS_P2;PMS_P1;PMS_P2;Temp;Humidity;BMP_temperature;BMP_pressure;BME280_temperature;BME280_humidity;BME280_pressure;Samples;Min_cycle;Max_cycle;Signal;HPM_P1;HPM_P2
2022/03/22 00:00:45;;;;;;;28.07;15.43;;;;;;;4.26;48.84;95900.66;5012419;28;20694;-66
2022/03/22 00:03:10;;;;;;;29.23;15.57;;;;;;;4.29;49.03;95910.59;5012042;28;20278;-65
2022/03/22 00:05:40;;;;;;;28.20;15.30;;;;;;;4.07;50.19;95905.59;5012275;28;20640;-66
2022/03/22 00:08:07;;;;;;;28.00;15.07;;;;;;;4.33;49.35;95906.22;5011822;28;20230;-63
2022/03/22 00:10:32;;;;;;;29.47;15.23;;;;;;;4.42;49.17;95904.19;4994604;28;20306;-63
2022/03/22 00:12:58;;;;;;;31.67;16.70;;;;;;;4.54;49.11;95891.09;5011917;28;20658;-63
2022/03/22 00:15:24;;;;;;;31.40;16.00;;;;;;;4.31;49.66;95893.72;5012179;28;20683;-63
2022/03/22 00:17:50;;;;;;;31.10;15.33;;;;;;;4.18;49.89;95885.03;4994252;28;20577;-64
2022/03/22 00:20:16;;;;;;;25.03;14.87;;;;;;;3.82;50.31;95877.22;5011914;28;20207;-67
2022/03/22 00:22:42;;;;;;;28.77;16.03;;;;;;;3.89;49.88;95878.63;5012058;28;20653;-61
2022/03/22 00:25:09;;;;;;;29.63;14.90;;;;;;;4.07;49.69;95882.94;5011918;28;20212;-63
2022/03/22 00:27:53;;;;;;;27.73;15.73;;;;;;;4.17;48.75;95884.22;4994185;28;20675;-65
2022/03/22 00:30:27;;;;;;;29.20;15.60;;;;;;;3.83;49.18;95876.38;5011515;28;20225;-66
2022/03/22 00:32:55;;;;;;;26.57;15.20;;;;;;;3.68;49.21;95881.16;5011672;28;20182;-64
2022/03/22 00:35:25;;;;;;;21.67;13.73;;;;;;;3.33;49.31;95882.50;5011860;28;20253;-61
2022/03/22 00:37:53;;;;;;;23.87;13.20;;;;;;;3.01;50.03;95883.63;5012251;28;20183;-65
2022/03/22 00:40:20;;;;;;;21.27;12.87;;;;;;;3.19;50.32;95880.47;5011872;28;20211;-63
2022/03/22 00:42:47;;;;;;;26.00;13.87;;;;;;;3.00;50.73;95864.44;5011640;28;20175;-63
2022/03/22 00:45:17;;;;;;;23.40;13.27;;;;;;;3.24;50.91;95868.56;5011604;28;20668;-60
2022/03/22 00:47:47;;;;;;;24.73;13.90;;;;;;;3.48;51.30;95873.53;5011551;28;20171;-65
2022/03/22 00:50:14;;;;;;;24.73;14.00;;;;;;;3.41;50.62;95876.28;5011890;28;20214;-65
2022/03/22 00:52:40;;;;;;;20.03;12.67;;;;;;;3.31;50.22;95876.72;5011549;28;20568;-64
2022/03/22 00:55:07;;;;;;;22.47;12.63;;;;;;;3.37;50.20;95879.78;5011613;28;20301;-66
2022/03/22 00:57:33;;;;;;;25.00;13.40;;;;;;;3.20;50.83;95877.09;4993828;28;20194;-64
2022/03/22 01:00:04;;;;;;;28.20;13.37;;;;;;;3.50;50.90;95876.81;5010800;28;20206;-62
2022/03/22 01:02:34;;;;;;;22.57;13.10;;;;;;;3.65;51.11;95873.72;5011652;28;20210;-61
2022/03/22 01:05:02;;;;;;;25.60;13.53;;;;;;;3.74;50.46;95878.41;5011509;28;20207;-66
2022/03/22 01:07:27;;;;;;;26.97;14.57;;;;;;;3.85;49.56;95862.03;4978145;28;20179;-67
2022/03/22 01:09:53;;;;;;;24.53;14.00;;;;;;;3.64;50.14;95862.03;4993616;28;20580;-65
2022/03/22 01:12:19;;;;;;;26.87;13.47;;;;;;;3.24;51.42;95863.53;5011525;28;20183;-66
2022/03/22 01:14:44;;;;;;;22.77;13.10;;;;;;;3.06;51.63;95858.38;5056306;23;20652;-61
2022/03/22 01:17:10;;;;;;;24.73;13.13;;;;;;;3.27;52.10;95863.41;5051012;28;20189;-62
2022/03/22 01:19:38;;;;;;;22.33;12.77;;;;;;;3.19;51.40;95859.56;5051876;28;20209;-66
2022/03/22 01:22:05;;;;;;;22.63;12.30;;;;;;;3.34;51.44;95859.00;5054662;28;20204;-65
2022/03/22 01:24:31;;;;;;;21.97;12.83;;;;;;;3.57;50.60;95860.63;5054647;28;20273;-65
2022/03/22 01:26:57;;;;;;;24.50;12.27;;;;;;;3.71;50.00;95863.44;5054912;28;20282;-65
2022/03/22 01:29:22;;;;;;;25.43;12.37;;;;;;;3.89;50.53;95856.00;5053362;28;20209;-65
2022/03/22 01:31:49;;;;;;;23.50;12.27;;;;;;;4.03;49.33;95855.44;5053226;28;20635;-63
2022/03/22 01:34:15;;;;;;;22.63;11.60;;;;;;;4.24;48.47;95860.44;5053245;28;20645;-66
2022/03/22 01:36:41;;;;;;;26.80;11.97;;;;;;;4.30;48.88;95858.56;5054828;28;20186;-61
2022/03/22 01:39:07;;;;;;;21.13;12.30;;;;;;;4.43;48.12;95852.94;5054878;28;20186;-65
2022/03/22 01:41:39;;;;;;;19.90;11.77;;;;;;;4.41;48.22;95862.25;5054428;28;20665;-65
2022/03/22 01:44:05;;;;;;;21.30;12.07;;;;;;;4.34;48.16;95860.88;5053382;28;20191;-66
2022/03/22 01:46:37;;;;;;;19.53;12.23;;;;;;;4.41;48.83;95864.78;5054303;28;20187;-65
2022/03/22 01:49:03;;;;;;;21.33;11.43;;;;;;;4.46;47.86;95860.38;5054613;28;20183;-61
2022/03/22 01:51:33;;;;;;;21.97;11.63;;;;;;;4.52;48.70;95860.13;5052706;28;20219;-66
2022/03/22 01:53:59;;;;;;;24.43;12.00;;;;;;;4.59;48.15;95861.50;5054533;28;20503;-61
2022/03/22 01:56:25;;;;;;;19.53;12.03;;;;;;;4.64;49.56;95853.75;5053944;28;20641;-62
2022/03/22 01:58:50;;;;;;;25.33;12.90;;;;;;;4.60;49.60;95848.03;5054608;28;20193;-66
2022/03/22 02:06:52;;;;;;;22.63;12.00;;;;;;;4.52;48.39;95844.19;5054165;28;20182;-66
2022/03/22 02:09:17;;;;;;;22.00;11.57;;;;;;;4.55;48.20;95849.09;5054365;28;20202;-63
2022/03/22 02:11:43;;;;;;;17.73;11.50;;;;;;;4.57;47.79;95849.84;5053761;28;20209;-63
2022/03/22 02:14:09;;;;;;;21.03;11.23;;;;;;;4.54;47.52;95845.78;5053839;28;20282;-66
2022/03/22 02:16:35;;;;;;;16.07;10.37;;;;;;;4.57;48.14;95847.31;5053622;28;20187;-66
2022/03/22 02:19:01;;;;;;;19.90;11.83;;;;;;;4.57;48.43;95840.59;5054125;28;20185;-63
2022/03/22 02:21:31;;;;;;;19.57;11.33;;;;;;;4.53;48.59;95836.56;5053524;28;20194;-66
2022/03/22 02:23:57;;;;;;;21.00;12.03;;;;;;;4.58;49.78;95824.63;5054039;28;20200;-65
2022/03/22 02:26:24;;;;;;;21.63;11.77;;;;;;;4.50;50.00;95826.66;5053342;28;20268;-65
2022/03/22 02:28:53;;;;;;;22.10;12.23;;;;;;;4.50;49.10;95839.22;5036028;28;20660;-65
2022/03/22 02:31:20;;;;;;;22.57;11.57;;;;;;;4.34;48.34;95840.75;5053339;28;20225;-65
2022/03/22 02:33:46;;;;;;;19.43;11.60;;;;;;;4.65;47.86;95851.16;5053246;28;20208;-61
2022/03/22 02:36:13;;;;;;;23.07;12.23;;;;;;;4.73;48.69;95849.13;5053225;28;20196;-61
2022/03/22 02:38:39;;;;;;;28.77;12.93;;;;;;;4.49;50.58;95831.72;5050222;28;20285;-61
2022/03/22 02:41:13;;;;;;;23.33;12.80;;;;;;;4.02;52.23;95823.66;5051634;28;20285;-65
2022/03/22 02:43:39;;;;;;;22.23;12.73;;;;;;;3.95;51.78;95820.56;5052641;28;20196;-65
2022/03/22 02:46:04;;;;;;;25.70;13.90;;;;;;;3.92;52.34;95822.38;5053025;28;20203;-65
2022/03/22 02:48:30;;;;;;;23.50;13.30;;;;;;;4.07;50.90;95801.63;5053517;28;20189;-61
2022/03/22 02:50:56;;;;;;;22.97;13.60;;;;;;;4.00;51.19;95812.81;5052902;28;20207;-65
2022/03/22 02:53:21;;;;;;;22.33;12.10;;;;;;;3.78;51.82;95819.56;5053258;28;20656;-61
2022/03/22 02:55:47;;;;;;;26.17;13.70;;;;;;;3.68;53.08;95824.16;5053010;28;20234;-65
2022/03/22 02:58:12;;;;;;;28.63;14.80;;;;;;;3.69;53.57;95835.03;5052973;28;20195;-65
2022/03/22 03:00:38;;;;;;;26.47;14.33;;;;;;;3.66;54.38;95825.06;5051533;28;20208;-66
2022/03/22 03:03:04;;;;;;;40.77;19.43;;;;;;;3.54;54.10;95820.53;5051544;28;20185;-62
2022/03/22 03:05:31;;;;;;;43.63;22.13;;;;;;;3.26;55.77;95821.59;5051658;28;20681;-65
2022/03/22 03:07:56;;;;;;;49.93;23.67;;;;;;;3.26;55.76;95810.72;5052919;28;20526;-66
2022/03/22 03:10:21;;;;;;;44.47;24.33;;;;;;;3.19;56.31;95810.13;5052528;28;20217;-62
2022/03/22 03:12:54;;;;;;;37.73;21.30;;;;;;;2.95;57.57;95815.25;5053087;28;20556;-62
2022/03/22 03:15:19;;;;;;;41.43;21.70;;;;;;;2.95;57.64;95802.72;5052426;28;20310;-61
2022/03/22 03:17:45;;;;;;;44.03;23.67;;;;;;;3.13;57.60;95824.63;5051324;28;20209;-61
2022/03/22 03:20:11;;;;;;;41.77;21.40;;;;;;;3.09;58.87;95795.47;5051092;28;20713;-66
2022/03/22 03:22:37;;;;;;;45.13;24.50;;;;;;;3.18;58.40;95798.44;5051445;28;20281;-66
2022/03/22 03:25:06;;;;;;;50.77;27.33;;;;;;;2.73;59.29;95786.78;5052481;28;20235;-65
2022/03/22 03:27:32;;;;;;;41.27;20.60;;;;;;;1.96;61.50;95805.31;5051157;28;20189;-63
2022/03/22 03:29:58;;;;;;;44.90;22.33;;;;;;;2.16;62.81;95814.72;5052126;28;20220;-65
2022/03/22 03:32:24;;;;;;;48.57;25.57;;;;;;;2.40;61.51;95818.91;5052454;28;20192;-63
2022/03/22 03:34:49;;;;;;;52.27;25.40;;;;;;;2.38;61.93;95838.22;5053644;23;20229;-62
2022/03/22 03:37:15;;;;;;;51.90;27.50;;;;;;;2.36;61.67;95829.91;5032469;28;20178;-63
2022/03/22 03:39:40;;;;;;;48.23;25.13;;;;;;;2.32;61.68;95834.19;5032133;28;20202;-65
2022/03/22 03:42:06;;;;;;;49.17;26.33;;;;;;;2.47;62.30;95830.34;5031576;28;20707;-63
2022/03/22 03:47:24;;;;;;;47.43;24.33;;;;;;;2.06;62.98;95814.19;5032328;28;20200;-65
2022/03/22 03:49:53;;;;;;;41.90;23.17;;;;;;;2.09;63.65;95821.63;5032075;28;20210;-63
2022/03/22 03:52:24;;;;;;;45.73;23.87;;;;;;;2.17;64.07;95801.28;5014547;28;20247;-65
2022/03/22 03:54:52;;;;;;;40.80;21.97;;;;;;;2.46;62.19;95811.16;5032116;28;20292;-65
2022/03/22 03:57:18;;;;;;;51.17;24.57;;;;;;;2.47;61.48;95812.78;5031992;28;20563;-65
2022/03/22 03:59:45;;;;;;;45.00;23.33;;;;;;;2.38;62.54;95820.66;5014117;28;20598;-63
2022/03/22 04:02:11;;;;;;;42.80;22.97;;;;;;;2.39;62.07;95810.53;5032651;28;20182;-66
2022/03/22 04:04:38;;;;;;;43.80;23.00;;;;;;;2.34;61.84;95802.34;5032220;28;20237;-65
2022/03/22 04:07:08;;;;;;;42.20;21.60;;;;;;;2.26;61.86;95770.91;5031656;28;20174;-66
2022/03/22 04:09:35;;;;;;;43.87;21.67;;;;;;;2.76;60.33;95827.66;5013770;28;20210;-66
2022/03/22 04:12:02;;;;;;;44.93;23.87;;;;;;;2.69;60.92;95820.41;5031684;28;20653;-63
2022/03/22 04:14:28;;;;;;;41.97;22.33;;;;;;;2.74;60.95;95821.03;5013587;28;20210;-66
2022/03/22 04:16:56;;;;;;;46.17;22.73;;;;;;;2.68;60.95;95817.06;5013836;28;20178;-67
2022/03/22 04:19:22;;;;;;;44.70;23.37;;;;;;;1.80;63.04;95779.13;5020571;23;20202;-66
2022/03/22 04:21:48;;;;;;;33.23;17.93;;;;;;;2.12;60.98;95821.50;5031836;28;20194;-66
2022/03/22 04:24:14;;;;;;;31.13;14.37;;;;;;;1.97;60.09;95838.75;5031522;28;20182;-65
2022/03/22 04:26:42;;;;;;;32.67;17.10;;;;;;;2.24;60.15;95842.88;5031587;28;20544;-65
2022/03/22 04:32:54;;;;;;;44.53;20.90;;;;;;;2.22;60.07;95832.88;5031500;28;20701;-62
2022/03/22 04:34:49;;;;;;;38.93;21.17;;;;;;;1.92;61.50;95818.81;5018482;28;20217;-62
2022/03/22 04:37:16;;;;;;;38.03;20.93;;;;;;;2.20;61.58;95814.53;5031691;28;20182;-63
2022/03/22 04:39:44;;;;;;;36.97;21.07;;;;;;;2.12;62.53;95825.72;5013545;28;20232;-65
2022/03/22 04:42:10;;;;;;;36.97;20.10;;;;;;;2.20;63.59;95821.28;5030417;28;20182;-65
2022/03/22 04:44:36;;;;;;;38.87;20.53;;;;;;;2.05;62.07;95820.09;5017101;28;20213;-61
2022/03/22 04:47:02;;;;;;;42.10;22.57;;;;;;;1.77;63.52;95800.97;4991718;28;20186;-62
2022/03/22 04:49:28;;;;;;;43.27;20.83;;;;;;;2.25;61.13;95841.97;5054159;22;20382;-65
2022/03/22 04:57:24;;;;;;;38.67;19.70;;;;;;;2.18;61.63;95826.31;5033350;28;20211;-62
2022/03/22 04:59:50;;;;;;;43.03;20.87;;;;;;;2.33;60.85;95845.06;5032915;28;20210;-61
2022/03/22 05:02:15;;;;;;;42.37;19.30;;;;;;;2.62;63.31;95823.97;5033709;28;20229;-66
2022/03/22 05:04:41;;;;;;;40.57;20.10;;;;;;;2.75;60.86;95825.19;5035318;28;20221;-63
2022/03/22 05:07:06;;;;;;;48.10;21.87;;;;;;;2.90;60.01;95850.56;5035242;28;20197;-62
2022/03/22 05:09:32;;;;;;;38.73;20.43;;;;;;;2.28;60.96;95816.81;5000704;28;20632;-65
2022/03/22 05:11:59;;;;;;;48.47;19.97;;;;;;;2.35;60.59;95828.25;5034926;28;20209;-65
2022/03/22 05:14:25;;;;;;;32.70;17.17;;;;;;;2.35;58.99;95833.28;5034825;28;20209;-66
2022/03/22 05:16:50;;;;;;;33.87;18.83;;;;;;;2.69;59.28;95828.72;5034874;28;20249;-65
2022/03/22 05:19:18;;;;;;;37.30;18.07;;;;;;;2.80;58.77;95841.72;5016922;28;20628;-65
2022/03/22 05:21:44;;;;;;;33.47;17.60;;;;;;;3.02;57.16;95847.63;5034952;28;20197;-65
2022/03/22 05:24:11;;;;;;;38.23;17.27;;;;;;;2.86;57.34;95833.16;5034678;28;20179;-65
2022/03/22 05:26:37;;;;;;;36.23;17.47;;;;;;;3.12;58.05;95848.09;5034423;28;20206;-63
2022/03/22 05:29:06;;;;;;;32.23;17.57;;;;;;;2.94;58.02;95841.22;5033551;28;20188;-62
2022/03/22 05:31:34;;;;;;;41.00;22.53;;;;;;;2.66;59.01;95828.03;5034353;28;20210;-61
2022/03/22 05:34:00;;;;;;;37.47;19.07;;;;;;;3.87;89.43;95844.38;5034764;28;20182;-61
2022/03/22 05:36:26;;;;;;;31.27;17.77;;;;;;;3.42;60.16;96006.13;5034458;28;20213;-62
2022/03/22 05:38:55;;;;;;;35.23;18.37;;;;;;;3.72;59.43;95980.72;5034545;28;20182;-64
2022/03/22 05:41:21;;;;;;;34.37;18.17;;;;;;;3.95;58.17;96001.66;5034887;28;20200;-64
2022/03/22 05:43:47;;;;;;;39.67;19.50;;;;;;;3.46;59.92;95946.50;5016647;28;20301;-62
2022/03/22 05:46:16;;;;;;;36.33;18.47;;;;;;;3.25;60.67;95933.00;5034867;28;20284;-64
2022/03/22 05:48:48;;;;;;;43.40;20.83;;;;;;;2.81;62.82;95890.25;5034370;28;20261;-62
2022/03/22 05:51:14;;;;;;;36.73;18.07;;;;;;;3.07;61.55;95926.13;5016399;28;20284;-62
2022/03/22 05:53:39;;;;;;;38.23;18.50;;;;;;;3.35;61.67;95906.66;5034331;28;20206;-64
2022/03/22 05:56:05;;;;;;;36.93;17.93;;;;;;;3.47;59.44;95945.63;5034613;28;20212;-63
2022/03/22 05:58:31;;;;;;;31.33;16.87;;;;;;;3.45;57.06;95971.69;5034388;28;20641;-61
2022/03/22 06:00:56;;;;;;;37.47;17.23;;;;;;;3.18;57.75;95981.84;5034421;28;20218;-63
2022/03/22 06:03:22;;;;;;;39.10;19.03;;;;;;;3.01;58.92;95948.16;5034296;28;20665;-61
2022/03/22 06:05:50;;;;;;;28.17;14.83;;;;;;;3.39;57.69;95958.47;5015819;28;20237;-63
2022/03/22 06:08:16;;;;;;;29.10;16.60;;;;;;;4.47;96.20;95846.06;5016537;23;20249;-63
2022/03/22 06:10:41;;;;;;;38.10;16.37;;;;;;;4.55;63.58;96043.78;5014322;28;20218;-63
2022/03/22 06:13:07;;;;;;;43.10;18.57;;;;;;;4.57;60.82;96054.63;5014436;28;20196;-62
2022/03/22 06:15:32;;;;;;;31.50;17.77;;;;;;;4.78;59.31;96047.94;5014567;28;20207;-63
2022/03/22 06:18:03;;;;;;;36.03;17.73;;;;;;;4.81;58.35;96037.72;4980263;28;20608;-64
2022/03/22 06:20:34;;;;;;;36.60;19.53;;;;;;;4.81;56.27;96062.91;5013785;28;20683;-63
2022/03/22 06:23:01;;;;;;;43.47;19.10;;;;;;;4.83;57.26;96025.88;5014120;28;20281;-64
2022/03/22 06:25:27;;;;;;;45.57;20.40;;;;;;;4.85;55.59;96034.19;4996411;28;20210;-64
2022/03/22 06:27:54;;;;;;;38.97;20.83;;;;;;;4.40;56.34;95993.22;5014293;28;20195;-61
2022/03/22 06:30:21;;;;;;;40.83;20.73;;;;;;;4.45;56.81;95992.16;5013932;28;20300;-64
2022/03/22 06:32:50;;;;;;;44.40;19.80;;;;;;;4.49;56.62;96010.47;5060172;23;20237;-64
2022/03/22 06:35:18;;;;;;;33.53;17.27;;;;;;;4.45;53.88;96037.47;5053616;28;20208;-64
2022/03/22 06:37:45;;;;;;;29.17;15.90;;;;;;;4.65;52.87;96027.44;5054150;28;20209;-61
2022/03/22 06:40:12;;;;;;;32.27;16.37;;;;;;;4.87;53.85;96019.84;5052022;28;20697;-64
2022/03/22 06:42:38;;;;;;;30.40;15.67;;;;;;;4.95;52.49;96030.41;5053858;28;20189;-63
2022/03/22 06:45:05;;;;;;;33.50;16.10;;;;;;;4.94;51.57;96034.66;5053602;28;20208;-63
2022/03/22 06:47:32;;;;;;;24.27;13.13;;;;;;;5.10;49.36;96082.72;5052165;28;20196;-64
2022/03/22 06:49:59;;;;;;;27.50;13.77;;;;;;;5.26;49.07;96091.31;5051752;28;20229;-64
2022/03/22 06:52:25;;;;;;;19.80;9.73;;;;;;;5.42;44.43;96081.41;5053503;28;20220;-61
2022/03/22 06:54:51;;;;;;;23.83;11.60;;;;;;;5.42;43.65;96061.22;5053452;28;20225;-62
2022/03/22 06:57:16;;;;;;;19.87;9.77;;;;;;;5.56;43.65;96043.81;5052935;28;20200;-63
2022/03/22 06:59:42;;;;;;;16.70;9.03;;;;;;;5.71;42.67;96053.25;5053359;28;20263;-64
2022/03/22 07:02:08;;;;;;;18.07;9.17;;;;;;;5.85;41.15;96053.50;5052074;28;20231;-63
2022/03/22 07:04:33;;;;;;;15.53;8.23;;;;;;;5.92;41.11;96052.31;5052967;28;20537;-65
2022/03/22 07:07:00;;;;;;;10.60;6.90;;;;;;;5.93;38.67;96069.94;5051726;28;20292;-64
2022/03/22 07:09:25;;;;;;;11.60;6.83;;;;;;;6.08;38.84;96017.16;5051661;28;20192;-63
2022/03/22 07:11:51;;;;;;;16.80;6.57;;;;;;;6.17;38.24;96002.38;5052975;28;20216;-63
2022/03/22 07:14:22;;;;;;;9.60;6.73;;;;;;;6.11;37.92;95986.69;5052998;28;20176;-64
2022/03/22 07:16:47;;;;;;;12.87;7.03;;;;;;;6.15;37.80;95990.72;5052555;28;20647;-64
2022/03/22 07:19:18;;;;;;;14.50;7.43;;;;;;;6.19;38.61;95988.00;5052396;28;20172;-64
2022/03/22 07:21:44;;;;;;;14.20;8.30;;;;;;;6.35;38.57;95971.22;5051447;28;20266;-65
2022/03/22 07:24:11;;;;;;;13.80;8.27;;;;;;;6.44;38.54;95965.75;5052688;28;20541;-64
2022/03/22 07:26:38;;;;;;;11.37;7.37;;;;;;;6.47;38.52;95965.59;5052731;28;20658;-63
2022/03/22 07:29:03;;;;;;;18.00;8.13;;;;;;;6.49;38.40;95965.53;5052393;28;20181;-61
2022/03/22 07:31:29;;;;;;;16.23;8.90;;;;;;;6.48;38.53;95968.97;5052221;28;20220;-65
2022/03/22 07:33:56;;;;;;;9.87;7.07;;;;;;;6.36;38.65;95952.66;5052452;28;20168;-65
2022/03/22 07:36:21;;;;;;;9.30;6.80;;;;;;;6.54;39.32;95940.88;5052337;28;20688;-64
2022/03/22 07:38:47;;;;;;;12.97;7.97;;;;;;;6.88;39.71;95917.28;5051077;28;20181;-61
2022/03/22 07:41:13;;;;;;;13.03;7.30;;;;;;;6.80;38.13;95940.41;5052175;28;20201;-61
2022/03/22 07:43:41;;;;;;;13.03;7.80;;;;;;;6.68;39.06;95921.63;5052170;28;20596;-64
2022/03/22 07:46:07;;;;;;;16.10;8.43;;;;;;;6.87;39.47;95939.22;5050598;28;20234;-61
2022/03/22 07:48:32;;;;;;;15.40;8.87;;;;;;;6.94;39.84;95929.63;5052373;28;20267;-64
2022/03/22 07:53:43;;;;;;;18.27;7.50;;;;;;;7.35;39.47;95930.88;5052226;28;20188;-61
2022/03/22 07:56:09;;;;;;;15.60;7.60;;;;;;;7.20;39.29;95932.47;5051822;28;20254;-61
2022/03/22 07:58:35;;;;;;;12.73;7.60;;;;;;;7.12;39.47;95923.63;5051936;28;20654;-63
2022/03/22 08:01:00;;;;;;;16.53;8.13;;;;;;;7.17;41.46;95882.03;5051987;28;20255;-63
2022/03/22 08:03:26;;;;;;;13.17;7.20;;;;;;;7.15;42.43;95896.47;5052098;28;20174;-64
2022/03/22 08:05:52;;;;;;;12.87;6.97;;;;;;;7.56;43.26;95876.59;5052039;28;20193;-61
2022/03/22 08:08:18;;;;;;;17.67;8.37;;;;;;;7.54;42.38;95896.13;5052316;28;20185;-64
2022/03/22 08:10:45;;;;;;;10.83;7.53;;;;;;;7.41;43.00;95870.63;5051552;28;20201;-65
2022/03/22 08:13:11;;;;;;;12.80;7.37;;;;;;;7.47;43.66;95864.47;5050735;28;20192;-65
2022/03/22 08:15:38;;;;;;;12.67;8.60;;;;;;;7.46;43.33;95876.28;5051392;28;20239;-65
2022/03/22 08:18:04;;;;;;;12.20;7.63;;;;;;;7.66;44.96;95844.84;5052153;28;20643;-65
2022/03/22 08:20:30;;;;;;;15.43;9.00;;;;;;;7.80;43.65;95882.09;5051640;28;20632;-64
2022/03/22 08:23:03;;;;;;;12.37;7.77;;;;;;;7.95;43.46;95878.72;5051632;28;20239;-63
2022/03/22 08:25:36;;;;;;;13.53;8.60;;;;;;;7.91;42.08;95883.13;5051685;28;20205;-66
2022/03/22 08:28:04;;;;;;;14.90;8.57;;;;;;;7.90;42.22;95875.63;5051415;28;20269;-62
2022/03/22 08:30:30;;;;;;;16.23;8.43;;;;;;;7.96;42.66;95887.94;5050206;28;20296;-66
2022/03/22 08:33:00;;;;;;;13.67;8.30;;;;;;;8.04;42.23;95876.47;5050278;28;20200;-62
2022/03/22 08:35:27;;;;;;;15.20;9.30;;;;;;;8.08;43.14;95883.00;5050388;28;20575;-63
2022/03/22 08:37:54;;;;;;;16.53;8.73;;;;;;;7.99;43.46;95875.94;5051494;28;20647;-64
2022/03/22 08:40:20;;;;;;;15.93;9.23;;;;;;;7.62;42.77;95888.94;5051502;28;20250;-64
2022/03/22 08:42:48;;;;;;;13.30;8.83;;;;;;;7.67;43.31;95865.91;5052003;28;20189;-66
2022/03/22 08:45:15;;;;;;;19.57;9.40;;;;;;;7.88;43.64;95874.91;5051603;28;20690;-66
2022/03/22 08:47:42;;;;;;;16.63;8.53;;;;;;;8.13;44.25;95862.50;5050205;28;20295;-63
2022/03/22 08:50:12;;;;;;;14.60;7.63;;;;;;;8.17;45.59;95836.91;5051306;28;20205;-63
2022/03/22 08:52:39;;;;;;;15.83;8.70;;;;;;;8.12;46.40;95843.16;5051709;28;20276;-62
2022/03/22 08:55:07;;;;;;;14.67;7.83;;;;;;;8.33;48.56;95821.69;5039190;23;20719;-63
2022/03/22 08:57:36;;;;;;;13.57;7.93;;;;;;;8.22;48.60;95818.94;5014343;28;20183;-65
2022/03/22 09:00:09;;;;;;;16.23;8.67;;;;;;;8.05;48.20;95819.88;5031485;28;20186;-65
2022/03/22 09:02:46;;;;;;;15.93;8.43;;;;;;;7.82;47.31;95786.63;5031851;28;20196;-64
2022/03/22 09:07:58;;;;;;;15.60;8.03;;;;;;;8.20;49.09;95795.41;5031962;28;20190;-61
2022/03/22 09:10:25;;;;;;;13.93;8.47;;;;;;;8.23;50.98;95783.38;5031352;28;20230;-62
2022/03/22 09:12:51;;;;;;;19.67;8.93;;;;;;;8.58;48.88;95799.09;5031728;28;20281;-65
2022/03/22 09:15:19;;;;;;;11.27;7.53;;;;;;;8.58;50.52;95783.09;5031323;28;20198;-65
2022/03/22 09:17:45;;;;;;;12.37;8.07;;;;;;;8.78;50.98;95781.00;5031758;28;20186;-66
2022/03/22 09:20:14;;;;;;;13.70;7.23;;;;;;;8.97;50.01;95798.44;5013474;28;20205;-63
2022/03/22 09:22:44;;;;;;;13.27;7.43;;;;;;;8.91;50.95;95783.59;5031582;28;20260;-63
2022/03/22 09:25:12;;;;;;;12.20;6.80;;;;;;;9.05;50.60;95786.94;5031244;28;20632;-64
2022/03/22 09:27:41;;;;;;;15.10;7.80;;;;;;;9.33;50.49;95801.31;5031375;28;20185;-63
2022/03/22 09:30:07;;;;;;;14.20;7.17;;;;;;;9.25;49.98;95804.31;5031187;28;20233;-63
2022/03/22 09:32:34;;;;;;;11.13;7.30;;;;;;;9.36;49.43;95795.22;5031459;28;20269;-63
2022/03/22 09:34:59;;;;;;;14.60;6.53;;;;;;;9.47;49.90;95801.28;5031067;28;20623;-64
2022/03/22 09:37:27;;;;;;;11.00;6.77;;;;;;;9.25;49.68;95773.84;5031164;28;20190;-64
2022/03/22 09:39:54;;;;;;;12.17;6.80;;;;;;;9.47;50.40;95768.28;5013320;28;20200;-61
2022/03/22 09:42:19;;;;;;;9.23;6.30;;;;;;;9.43;49.90;95766.03;5056723;23;20229;-62
2022/03/22 09:44:50;;;;;;;10.23;5.67;;;;;;;9.58;48.86;95791.25;5059581;23;20236;-61
2022/03/22 09:47:16;;;;;;;12.40;6.60;;;;;;;9.72;48.95;95793.75;5054568;28;20249;-61
2022/03/22 09:49:41;;;;;;;10.43;6.77;;;;;;;9.59;49.18;95785.28;5054419;28;20284;-62
2022/03/22 09:52:08;;;;;;;13.07;7.93;;;;;;;9.62;49.51;95787.63;5052938;28;20206;-64
2022/03/22 09:54:34;;;;;;;10.83;6.40;;;;;;;9.57;49.86;95784.56;5054516;28;20276;-65
2022/03/22 09:56:59;;;;;;;9.40;5.73;;;;;;;9.43;49.09;95793.94;5054343;28;20255;-64
2022/03/22 09:59:25;;;;;;;13.67;6.73;;;;;;;9.37;50.71;95767.22;5053254;28;20663;-65
2022/03/22 10:01:50;;;;;;;14.80;6.30;;;;;;;9.60;49.70;95778.47;5054262;28;20659;-65
2022/03/22 10:04:17;;;;;;;9.40;6.33;;;;;;;9.64;49.90;95764.66;5054535;28;20182;-61
2022/03/22 10:06:57;;;;;;;9.20;5.73;;;;;;;10.20;48.48;95778.84;5054232;28;20245;-65
2022/03/22 10:09:36;;;;;;;9.13;5.77;;;;;;;10.03;48.80;95765.50;5053245;28;20210;-66
2022/03/22 10:12:03;;;;;;;11.63;5.70;;;;;;;9.96;48.90;95766.78;5053819;28;20196;-63
2022/03/22 10:14:37;;;;;;;9.53;5.63;;;;;;;10.15;49.18;95738.50;5054128;28;20645;-63
2022/03/22 10:17:20;;;;;;;12.73;6.17;;;;;;;10.77;48.20;95760.53;5053635;28;20193;-65
2022/03/22 10:19:49;;;;;;;9.13;5.50;;;;;;;10.84;48.71;95750.78;5053654;28;20201;-62
2022/03/22 10:22:16;;;;;;;10.23;5.57;;;;;;;11.03;48.24;95761.28;5053992;28;20264;-63
2022/03/22 10:24:43;;;;;;;7.67;5.47;;;;;;;11.19;48.15;95761.88;5053618;28;20197;-64
2022/03/22 10:27:23;;;;;;;12.83;6.07;;;;;;;11.64;46.98;95768.84;5052571;28;20365;-66
2022/03/22 10:29:49;;;;;;;10.77;6.23;;;;;;;11.68;47.62;95765.19;5053721;28;20616;-63
2022/03/22 10:32:16;;;;;;;11.53;6.20;;;;;;;12.19;45.30;95760.63;5053701;28;20296;-63
2022/03/22 10:34:42;;;;;;;10.03;5.73;;;;;;;12.68;45.02;95777.38;5053801;28;20279;-66
2022/03/22 10:37:08;;;;;;;11.70;6.03;;;;;;;12.56;44.26;95787.56;5053459;28;20186;-64
2022/03/22 10:39:43;;;;;;;10.70;6.00;;;;;;;12.51;43.64;95791.38;5053392;28;20198;-60
2022/03/22 10:42:09;;;;;;;10.50;5.33;;;;;;;12.81;43.48;95771.22;5053617;28;20212;-66
2022/03/22 10:44:37;;;;;;;12.27;6.30;;;;;;;13.04;42.76;95792.50;5053298;28;20295;-65
2022/03/22 10:47:05;;;;;;;7.30;5.30;;;;;;;13.50;41.89;95788.03;5053219;28;20177;-64
2022/03/22 10:49:30;;;;;;;7.53;5.40;;;;;;;13.30;40.08;95791.31;5053255;28;20285;-67
2022/03/22 10:51:58;;;;;;;8.00;5.30;;;;;;;13.31;41.10;95778.41;5050526;28;20296;-66
2022/03/22 10:54:24;;;;;;;9.97;5.77;;;;;;;13.49;41.20;95768.53;5053448;28;20588;-63
2022/03/22 10:56:51;;;;;;;8.57;6.03;;;;;;;13.94;41.05;95776.84;5052926;28;20606;-66
2022/03/22 10:59:21;;;;;;;7.93;5.97;;;;;;;14.39;39.16;95788.50;5052844;28;20662;-66
2022/03/22 11:01:48;;;;;;;15.00;6.38;;;;;;;14.71;39.47;95779.00;5052924;28;20217;-66
2022/03/22 11:04:15;;;;;;;11.00;5.87;;;;;;;14.78;37.63;95790.38;5051706;28;20192;-68
2022/03/22 11:06:41;;;;;;;9.32;5.95;;;;;;;14.84;37.11;95782.19;5054631;28;20181;-63
2022/03/22 11:09:08;;;;;;;11.37;5.63;;;;;;;15.06;37.65;95766.63;5053108;28;20186;-61
2022/03/22 11:11:35;;;;;;;8.20;5.70;;;;;;;15.15;37.50;95757.34;5034765;28;20212;-63
2022/03/22 11:14:03;;;;;;;10.80;6.10;;;;;;;15.31;36.61;95752.53;5052953;28;20220;-65
2022/03/22 11:16:31;;;;;;;8.45;5.53;;;;;;;15.55;37.17;95760.72;5051164;28;20219;-63
2022/03/22 11:19:01;;;;;;;9.23;5.68;;;;;;;15.90;34.52;95785.84;5052876;28;20217;-63
2022/03/22 11:21:27;;;;;;;10.98;5.90;;;;;;;16.11;36.66;95745.47;5052476;28;20177;-66
2022/03/22 11:24:25;;;;;;;8.27;5.30;;;;;;;16.18;35.44;95749.09;5052374;28;20282;-63
2022/03/22 11:26:55;;;;;;;8.98;5.22;;;;;;;16.41;34.70;95747.03;5029808;28;20534;-64
2022/03/22 11:29:23;;;;;;;8.52;5.30;;;;;;;16.61;33.98;95734.06;5051130;28;20230;-66
2022/03/22 11:34:35;;;;;;;14.00;6.25;;;;;;;16.03;33.80;95718.88;5052703;28;20697;-60
2022/03/22 11:37:01;;;;;;;13.02;5.32;;;;;;;16.47;34.06;95707.97;5052124;28;20600;-67
2022/03/22 11:42:25;;;;;;;8.70;5.43;;;;;;;16.60;32.88;95703.38;5052495;28;20173;-63
2022/03/22 11:45:09;;;;;;;8.88;4.93;;;;;;;16.54;32.59;95678.28;5051051;28;20213;-64
2022/03/22 11:47:40;;;;;;;9.32;5.43;;;;;;;17.27;32.08;95705.66;5052423;28;20181;-68
2022/03/22 11:50:13;;;;;;;9.63;5.28;;;;;;;17.18;31.23;95688.50;5050566;28;20194;-64
2022/03/22 11:52:40;;;;;;;11.20;5.65;;;;;;;16.87;31.36;95677.72;5052096;28;20675;-66
2022/03/22 11:55:08;;;;;;;8.65;5.82;;;;;;;16.44;32.28;95673.13;5052249;28;20687;-61
2022/03/22 11:58:03;;;;;;;9.00;5.85;;;;;;;16.76;31.68;95683.06;5051816;28;20181;-61